createdAt,value
2022-09-12T00:00:15.773Z,101186.69
2022-09-12T00:02:42.360Z,101190.91
2022-09-12T00:05:09.061Z,101157.94
2022-09-12T00:07:35.821Z,101184.25
2022-09-12T00:10:02.383Z,101154.19
2022-09-12T00:12:28.921Z,101184.66
2022-09-12T00:14:55.487Z,101175.13
2022-09-12T00:17:22.008Z,101182.84
2022-09-12T00:19:48.527Z,101175.34
2022-09-12T00:22:15.133Z,101179.38
2022-09-12T00:24:41.666Z,101142.47
2022-09-12T00:27:08.222Z,101178.59
2022-09-12T00:29:34.871Z,101181.56
2022-09-12T00:32:01.724Z,101192.78
2022-09-12T00:34:28.317Z,101192.06
2022-09-12T00:36:54.894Z,101198.25
2022-09-12T00:39:21.398Z,101188.81
2022-09-12T00:41:47.867Z,101196.72
2022-09-12T00:44:23.571Z,101197.91
2022-09-12T00:47:04.988Z,101188.28
2022-09-12T00:49:46.347Z,101179.03
2022-09-12T00:52:31.834Z,101191.72
2022-09-12T00:55:05.424Z,101171.84
2022-09-12T00:57:41.625Z,101155.34
2022-09-12T01:00:15.796Z,101189.16
2022-09-12T01:02:59.846Z,101170.09
2022-09-12T01:05:29.549Z,101129.59
2022-09-12T01:07:57.577Z,101173.50
2022-09-12T01:10:24.697Z,101175.16
2022-09-12T01:12:51.264Z,101165.25
2022-09-12T01:15:17.899Z,101183.38
2022-09-12T01:17:59.700Z,101117.44
2022-09-12T01:20:57.954Z,101187.19
2022-09-12T01:23:45.346Z,101186.78
2022-09-12T01:26:49.587Z,101088.25
2022-09-12T01:29:40.831Z,101174.47
2022-09-12T01:32:29.041Z,101180.50
2022-09-12T01:35:08.362Z,101174.09
2022-09-12T01:37:42.707Z,101170.34
2022-09-12T01:40:19.149Z,101161.16
2022-09-12T01:43:09.699Z,101142.16
2022-09-12T01:45:45.990Z,101168.84
2022-09-12T01:48:24.489Z,101171.31
2022-09-12T01:50:56.859Z,101130.81
2022-09-12T01:53:29.709Z,101155.22
2022-09-12T01:56:02.985Z,101122.06
2022-09-12T01:58:38.864Z,101141.66
2022-09-12T02:01:15.706Z,101130.34
2022-09-12T02:03:53.715Z,101155.31
2022-09-12T02:06:33.460Z,101163.16
2022-09-12T02:09:06.837Z,101167.28
2022-09-12T02:11:38.625Z,101146.88
2022-09-12T02:14:21.661Z,101123.13
2022-09-12T02:17:13.082Z,101147.78
2022-09-12T02:19:49.341Z,101149.19
2022-09-12T02:22:19.959Z,101159.56
2022-09-12T02:24:52.468Z,101133.31
2022-09-12T02:27:43.171Z,101151.25
2022-09-12T02:30:10.787Z,101145.13
2022-09-12T02:32:44.458Z,100945.09
2022-09-12T02:35:42.436Z,101135.00
2022-09-12T02:38:19.978Z,101129.13
2022-09-12T02:40:46.940Z,101138.13
2022-09-12T02:43:13.446Z,101137.50
2022-09-12T02:45:40.250Z,101127.41
2022-09-12T02:48:22.461Z,101077.66
2022-09-12T02:50:49.285Z,101147.97
2022-09-12T02:53:16.111Z,101147.97
2022-09-12T02:55:43.290Z,101127.06
2022-09-12T02:58:23.528Z,101121.47
2022-09-12T03:01:23.050Z,101145.47
2022-09-12T03:03:58.781Z,101139.41
2022-09-12T03:07:00.548Z,101130.63
2022-09-12T03:09:48.599Z,101150.72
2022-09-12T03:12:30.325Z,101151.50
2022-09-12T03:15:12.097Z,101094.03
2022-09-12T03:18:11.488Z,101087.16
2022-09-12T03:21:09.715Z,101145.28
2022-09-12T03:24:17.928Z,101142.00
2022-09-12T03:26:56.455Z,101146.47
2022-09-12T03:29:26.279Z,101121.66
2022-09-12T03:31:55.266Z,101153.41
2022-09-12T03:34:23.463Z,101139.41
2022-09-12T03:36:50.511Z,101152.97
2022-09-12T03:39:17.329Z,101129.66
2022-09-12T03:41:43.901Z,101140.06
2022-09-12T03:44:10.455Z,101155.69
2022-09-12T03:46:37.171Z,101123.47
2022-09-12T03:49:03.922Z,101143.00
2022-09-12T03:51:31.156Z,101157.78
2022-09-12T03:53:57.673Z,101162.28
2022-09-12T03:56:24.221Z,101016.53
2022-09-12T03:58:50.710Z,101157.09
2022-09-12T04:01:19.270Z,101031.44
2022-09-12T04:03:50.703Z,101164.66
2022-09-12T04:06:20.088Z,101099.69
2022-09-12T04:08:54.774Z,101089.56
2022-09-12T04:11:22.511Z,101174.16
2022-09-12T04:13:49.759Z,101147.03
2022-09-12T04:16:17.832Z,101158.44
2022-09-12T04:18:44.928Z,101175.53
2022-09-12T04:21:16.754Z,101052.00
2022-09-12T04:23:43.854Z,101168.41
2022-09-12T04:26:11.541Z,101153.34
2022-09-12T04:28:38.687Z,101140.25
2022-09-12T04:31:08.255Z,101173.34
2022-09-12T04:33:36.240Z,101173.63
2022-09-12T04:36:05.231Z,101179.66
2022-09-12T04:38:32.278Z,101145.59
2022-09-12T04:40:58.933Z,101181.31
2022-09-12T04:43:25.579Z,101191.03
2022-09-12T04:45:52.189Z,101181.97
2022-09-12T04:48:18.898Z,101184.56
2022-09-12T04:50:45.410Z,101195.66
2022-09-12T04:53:12.041Z,101193.19
2022-09-12T04:55:38.625Z,101206.78
2022-09-12T04:58:05.225Z,101199.53
2022-09-12T05:00:31.752Z,101176.34
2022-09-12T05:02:58.321Z,101192.78
2022-09-12T05:05:24.970Z,101171.31
2022-09-12T05:07:51.550Z,101180.88
2022-09-12T05:10:18.223Z,101170.78
2022-09-12T05:12:44.716Z,101160.69
2022-09-12T05:15:11.658Z,101189.63
2022-09-12T05:17:38.290Z,101208.44
2022-09-12T05:20:05.162Z,101205.41
2022-09-12T05:22:31.748Z,101162.22
2022-09-12T05:24:58.301Z,101182.03
2022-09-12T05:27:24.830Z,101209.88
2022-09-12T05:29:51.587Z,101205.53
2022-09-12T05:32:18.206Z,101224.13
2022-09-12T05:34:45.171Z,101222.69
2022-09-12T05:37:11.718Z,101221.59
2022-09-12T05:39:38.392Z,101211.88
2022-09-12T05:42:06.114Z,101218.41
2022-09-12T05:44:35.998Z,101226.75
2022-09-12T05:47:02.580Z,101200.00
2022-09-12T05:49:30.224Z,101205.34
2022-09-12T05:51:56.773Z,101239.53
2022-09-12T05:54:24.355Z,101243.16
2022-09-12T05:56:52.180Z,101239.25
2022-09-12T05:59:21.048Z,101220.38
2022-09-12T06:01:48.686Z,101196.13
2022-09-12T06:04:16.110Z,101243.38
2022-09-12T06:06:45.116Z,101253.69
2022-09-12T06:09:13.459Z,101243.72
2022-09-12T06:11:43.485Z,101182.28
2022-09-12T06:14:12.105Z,101242.19
2022-09-12T06:16:39.398Z,101180.41
2022-09-12T06:19:15.408Z,101225.63
2022-09-12T06:21:42.511Z,101247.75
2022-09-12T06:24:09.377Z,101216.88
2022-09-12T06:26:36.799Z,101233.16
2022-09-12T06:29:03.873Z,101250.00
2022-09-12T06:31:36.038Z,101241.94
2022-09-12T06:34:05.326Z,101118.06
2022-09-12T06:36:34.297Z,101236.03
2022-09-12T06:39:28.445Z,101204.69
2022-09-12T06:41:57.220Z,101226.50
2022-09-12T06:44:23.747Z,101236.53
2022-09-12T06:46:50.626Z,101218.66
2022-09-12T06:49:17.908Z,101238.16
2022-09-12T06:51:44.802Z,101200.06
2022-09-12T06:54:15.692Z,101205.34
2022-09-12T06:56:42.887Z,101237.38
2022-09-12T06:59:09.687Z,101214.81
2022-09-12T07:01:36.373Z,101219.91
2022-09-12T07:04:04.221Z,101193.63
2022-09-12T07:06:38.054Z,101223.78
2022-09-12T07:09:07.035Z,101220.47
2022-09-12T07:11:36.559Z,101220.09
2022-09-12T07:14:05.024Z,101161.31
2022-09-12T07:16:34.218Z,101218.47
2022-09-12T07:19:02.436Z,101203.25
2022-09-12T07:21:29.737Z,101206.03
2022-09-12T07:23:58.039Z,101178.06
2022-09-12T07:26:26.909Z,101180.28
2022-09-12T07:29:00.696Z,101189.91
2022-09-12T07:31:39.633Z,101199.53
2022-09-12T07:34:06.900Z,101210.59
2022-09-12T07:36:33.420Z,101170.38
2022-09-12T07:39:00.294Z,101200.81
2022-09-12T07:41:29.369Z,101143.47
2022-09-12T07:43:58.168Z,101209.13
2022-09-12T07:46:28.423Z,101202.69
2022-09-12T07:48:57.372Z,101220.19
2022-09-12T07:51:28.233Z,101212.91
2022-09-12T07:53:56.424Z,101195.19
2022-09-12T07:56:29.360Z,101219.31
2022-09-12T07:58:59.527Z,101221.19
2022-09-12T08:01:26.601Z,101232.09
2022-09-12T08:04:00.701Z,101228.94
2022-09-12T08:06:31.069Z,101232.09
2022-09-12T08:08:59.201Z,101166.59
2022-09-12T08:11:28.253Z,101209.56
2022-09-12T08:13:57.237Z,101227.09
2022-09-12T08:16:26.924Z,101245.22
2022-09-12T08:18:53.799Z,101242.06
2022-09-12T08:21:30.780Z,101238.34
2022-09-12T08:24:01.089Z,101236.44
2022-09-12T08:26:28.474Z,101229.13
2022-09-12T08:28:55.253Z,101186.22
2022-09-12T08:31:23.860Z,101231.66
2022-09-12T08:33:50.999Z,101207.88
2022-09-12T08:36:20.978Z,101227.03
2022-09-12T08:38:50.467Z,101225.97
2022-09-12T08:41:38.843Z,101241.66
2022-09-12T08:44:17.423Z,101241.22
2022-09-12T08:46:47.096Z,101221.59
2022-09-12T08:49:25.578Z,101231.59
2022-09-12T08:51:52.636Z,101229.00
2022-09-12T08:54:24.104Z,101191.50
2022-09-12T08:56:51.172Z,101240.66
2022-09-12T08:59:17.772Z,101182.50
2022-09-12T09:01:45.707Z,101231.78
2022-09-12T09:04:32.180Z,101225.38
2022-09-12T09:07:04.603Z,101235.09
2022-09-12T09:09:37.248Z,101241.97
2022-09-12T09:12:28.481Z,101223.50
2022-09-12T09:15:05.309Z,101233.22
2022-09-12T09:17:50.074Z,101239.50
2022-09-12T09:20:28.782Z,101226.50
2022-09-12T09:23:15.515Z,101228.75
2022-09-12T09:25:50.988Z,101212.69
2022-09-12T09:28:31.914Z,101190.50
2022-09-12T09:30:58.486Z,101204.19
2022-09-12T09:33:31.046Z,101017.22
2022-09-12T09:36:17.366Z,101200.84
2022-09-12T09:39:13.548Z,101194.34
2022-09-12T09:41:53.330Z,101217.47
2022-09-12T09:44:20.275Z,101197.69
2022-09-12T09:46:54.262Z,101113.16
2022-09-12T09:49:22.360Z,101180.19
2022-09-12T09:51:49.426Z,101184.72
2022-09-12T09:54:24.474Z,101216.13
2022-09-12T09:56:51.474Z,101184.28
2022-09-12T09:59:31.584Z,101211.25
2022-09-12T10:02:03.800Z,101190.25
2022-09-12T10:04:36.018Z,101193.50
2022-09-12T10:07:06.309Z,101186.53
2022-09-12T10:09:35.101Z,101188.03
2022-09-12T10:12:20.413Z,101162.78
2022-09-12T10:14:58.283Z,101204.41
2022-09-12T10:17:51.364Z,101197.53
2022-09-12T10:20:41.677Z,101197.06
2022-09-12T10:23:35.208Z,101177.75
2022-09-12T10:26:04.648Z,101140.75
2022-09-12T10:28:43.444Z,101048.13
2022-09-12T10:31:15.684Z,101188.03
2022-09-12T10:33:47.451Z,101195.94
2022-09-12T10:36:15.723Z,101190.94
2022-09-12T10:38:49.917Z,101186.06
2022-09-12T10:41:16.956Z,101172.31
2022-09-12T10:43:44.004Z,101142.03
2022-09-12T10:46:19.681Z,101180.59
2022-09-12T10:48:50.941Z,101110.97
2022-09-12T10:51:28.444Z,101175.06
2022-09-12T10:54:02.331Z,101179.34
2022-09-12T10:56:53.466Z,101161.09
2022-09-12T10:59:34.302Z,101171.06
2022-09-12T11:02:46.669Z,101169.44
2022-09-12T11:05:36.607Z,101165.84
2022-09-12T11:08:55.794Z,101173.81
2022-09-12T11:11:57.827Z,101152.72
2022-09-12T11:14:36.848Z,101123.84
2022-09-12T11:17:07.531Z,101163.25
2022-09-12T11:19:57.190Z,101168.41
2022-09-12T11:22:32.769Z,101164.81
2022-09-12T11:25:20.566Z,101147.97
2022-09-12T11:27:53.210Z,101152.25
2022-09-12T11:30:19.848Z,101166.88
2022-09-12T11:33:08.241Z,101163.44
2022-09-12T11:35:50.681Z,101149.50
2022-09-12T11:38:33.683Z,101100.03
2022-09-12T11:41:07.328Z,101121.69
2022-09-12T11:43:45.946Z,101152.91
2022-09-12T11:46:38.956Z,101145.66
2022-09-12T11:49:15.613Z,101091.63
2022-09-12T11:51:50.863Z,100947.66
2022-09-12T11:54:36.738Z,101135.44
2022-09-12T11:57:15.391Z,101085.69
2022-09-12T11:59:51.979Z,101145.69
2022-09-12T12:02:27.715Z,101115.94
2022-09-12T12:05:40.750Z,101124.09
2022-09-12T12:08:08.283Z,101134.34
2022-09-12T12:10:44.177Z,101125.59
2022-09-12T12:13:30.714Z,101095.38
2022-09-12T12:16:04.106Z,101129.56
2022-09-12T12:18:33.155Z,101112.38
2022-09-12T12:21:21.688Z,101129.28
2022-09-12T12:24:13.035Z,101115.22
2022-09-12T12:26:44.634Z,101120.19
2022-09-12T12:29:17.390Z,101034.41
2022-09-12T12:31:59.347Z,101110.25
2022-09-12T12:34:31.924Z,101112.19
2022-09-12T12:37:19.899Z,101093.41
2022-09-12T12:39:56.291Z,101052.38
2022-09-12T12:42:38.333Z,101079.72
2022-09-12T12:45:20.014Z,101095.34
2022-09-12T12:47:54.477Z,101077.91
2022-09-12T12:50:26.335Z,101050.34
2022-09-12T12:52:54.861Z,101075.72
2022-09-12T12:55:38.875Z,101086.50
2022-09-12T12:58:24.673Z,101079.22
2022-09-12T13:01:07.274Z,101047.69
2022-09-12T13:03:34.728Z,101084.41
2022-09-12T13:06:05.422Z,101083.97
2022-09-12T13:08:35.384Z,101083.97
2022-09-12T13:11:27.339Z,101070.81
2022-09-12T13:14:00.287Z,101040.91
2022-09-12T13:16:37.672Z,101009.53
2022-09-12T13:19:29.311Z,101062.97
2022-09-12T13:21:57.385Z,101058.84
2022-09-12T13:24:23.978Z,101065.47
2022-09-12T13:26:50.873Z,101052.91
2022-09-12T13:29:22.621Z,100969.59
2022-09-12T13:31:53.551Z,101050.91
2022-09-12T13:34:41.958Z,101028.78
2022-09-12T13:37:31.655Z,100997.63
2022-09-12T13:40:24.258Z,101048.38
2022-09-12T13:43:17.747Z,101030.72
2022-09-12T13:45:47.005Z,101043.28
2022-09-12T13:48:20.755Z,101025.50
2022-09-12T13:50:56.696Z,101030.84
2022-09-12T13:53:28.828Z,100997.03
2022-09-12T13:55:59.103Z,101031.97
2022-09-12T13:58:28.421Z,100917.13
2022-09-12T14:01:16.100Z,101033.56
2022-09-12T14:04:09.555Z,101004.22
2022-09-12T14:06:44.053Z,101022.91
2022-09-12T14:09:29.881Z,101014.84
2022-09-12T14:11:57.770Z,100978.50
2022-09-12T14:14:40.520Z,101012.38
2022-09-12T14:17:24.102Z,101020.53
2022-09-12T14:19:52.845Z,100976.81
2022-09-12T14:22:19.735Z,101010.19
2022-09-12T14:24:51.813Z,100994.47
2022-09-12T14:27:28.720Z,100973.28
2022-09-12T14:30:22.674Z,100985.72
2022-09-12T14:33:10.438Z,100996.78
2022-09-12T14:35:43.127Z,100982.03
2022-09-12T14:38:09.959Z,100983.78
2022-09-12T14:41:01.266Z,100991.44
2022-09-12T14:43:34.902Z,100993.81
2022-09-12T14:46:15.899Z,100993.94
2022-09-12T14:49:27.699Z,100987.38
2022-09-12T14:51:56.271Z,100985.00
2022-09-12T14:54:37.361Z,100950.53
2022-09-12T14:57:07.378Z,100977.44
2022-09-12T14:59:40.887Z,100974.25
2022-09-12T15:02:14.304Z,100973.16
2022-09-12T15:04:43.195Z,100972.69
2022-09-12T15:07:22.655Z,100961.69
2022-09-12T15:09:49.733Z,100969.75
2022-09-12T15:12:16.481Z,100971.97
2022-09-12T15:14:43.021Z,100938.56
2022-09-12T15:17:09.570Z,100931.47
2022-09-12T15:19:36.108Z,100943.31
2022-09-12T15:22:02.685Z,100922.44
2022-09-12T15:24:29.321Z,100953.88
2022-09-12T15:26:56.845Z,100932.03
2022-09-12T15:29:23.345Z,100953.66
2022-09-12T15:31:51.599Z,100962.38
2022-09-12T15:34:18.222Z,100953.31
2022-09-12T15:36:44.734Z,100946.50
2022-09-12T15:39:12.005Z,100944.47
2022-09-12T15:41:39.045Z,100907.41
2022-09-12T15:44:15.285Z,100962.38
2022-09-12T15:46:42.195Z,100940.81
2022-09-12T15:49:08.835Z,100928.84
2022-09-12T15:51:35.799Z,100931.22
2022-09-12T15:54:04.292Z,100957.53
2022-09-12T15:56:30.780Z,100915.13
2022-09-12T15:58:59.870Z,100942.94
2022-09-12T16:01:28.397Z,100922.44
2022-09-12T16:03:55.483Z,100911.56
2022-09-12T16:06:22.423Z,100943.19
2022-09-12T16:08:49.642Z,100926.25
2022-09-12T16:11:26.945Z,100936.22
2022-09-12T16:13:55.087Z,100932.28
2022-09-12T16:16:22.111Z,100939.41
2022-09-12T16:18:49.008Z,100946.25
2022-09-12T16:21:16.100Z,100936.91
2022-09-12T16:23:47.078Z,100939.28
2022-09-12T16:26:14.030Z,100940.47
2022-09-12T16:28:41.077Z,100935.25
2022-09-12T16:31:10.494Z,100928.63
2022-09-12T16:33:38.021Z,100885.41
2022-09-12T16:36:13.364Z,100882.91
2022-09-12T16:38:45.594Z,100937.59
2022-09-12T16:41:13.066Z,100885.41
2022-09-12T16:43:40.541Z,100930.97
2022-09-12T16:46:12.731Z,100937.28
2022-09-12T16:48:52.093Z,100932.75
2022-09-12T16:51:21.534Z,100935.25
2022-09-12T16:53:49.103Z,100914.63
2022-09-12T16:56:16.673Z,100880.06
2022-09-12T16:58:43.685Z,100927.66
2022-09-12T17:03:40.431Z,100888.00
2022-09-12T17:06:12.633Z,100884.31
2022-09-12T17:08:41.542Z,100928.75
2022-09-12T17:11:13.614Z,100933.59
2022-09-12T17:14:03.207Z,100926.97
2022-09-12T17:16:28.866Z,100924.59
2022-09-12T17:18:55.682Z,100957.38
2022-09-12T17:21:25.384Z,100908.94
2022-09-12T17:23:51.939Z,100954.91
2022-09-12T17:26:18.624Z,100937.38
2022-09-12T17:28:45.196Z,100943.31
2022-09-12T17:31:14.472Z,100924.13
2022-09-12T17:33:41.367Z,100949.34
2022-09-12T17:36:11.446Z,100954.69
2022-09-12T17:38:39.840Z,100950.97
2022-09-12T17:41:18.217Z,100954.53
2022-09-12T17:43:52.778Z,100924.00
2022-09-12T17:46:20.085Z,100954.66
2022-09-12T17:48:54.543Z,100945.78
2022-09-12T17:51:22.903Z,100961.03
2022-09-12T17:53:49.444Z,100957.84
2022-09-12T17:56:16.018Z,100960.00
2022-09-12T17:58:42.497Z,100918.94
2022-09-12T18:01:33.735Z,100946.91
2022-09-12T18:04:01.322Z,100933.50
2022-09-12T18:06:29.127Z,100956.88
2022-09-12T18:08:55.658Z,100963.88
2022-09-12T18:11:22.213Z,100969.47
2022-09-12T18:13:49.068Z,100977.28
2022-09-12T18:16:16.037Z,100978.34
2022-09-12T18:18:43.370Z,100986.16
2022-09-12T18:21:11.589Z,100991.34
2022-09-12T18:23:38.207Z,100992.47
2022-09-12T18:26:10.779Z,100964.75
2022-09-12T18:28:39.766Z,101006.06
2022-09-12T18:31:16.009Z,101005.94
2022-09-12T18:33:43.001Z,101006.63
2022-09-12T18:36:12.070Z,101005.25
2022-09-12T18:38:39.869Z,100930.34
2022-09-12T18:41:11.694Z,101015.63
2022-09-12T18:43:38.774Z,101014.59
2022-09-12T18:46:07.281Z,100972.91
2022-09-12T18:48:34.290Z,100992.91
2022-09-12T18:51:12.240Z,101005.22
2022-09-12T18:53:39.211Z,100987.69
2022-09-12T18:56:11.012Z,101019.41
2022-09-12T18:58:40.555Z,101022.44
2022-09-12T19:01:15.985Z,101025.34
2022-09-12T19:03:43.414Z,101008.56
2022-09-12T19:06:12.562Z,100967.88
2022-09-12T19:08:40.362Z,101016.16
2022-09-12T19:11:08.074Z,101018.84
2022-09-12T19:13:37.034Z,101021.75
2022-09-12T19:16:05.725Z,101013.09
2022-09-12T19:18:34.042Z,101030.88
2022-09-12T19:21:01.442Z,101028.41
2022-09-12T19:23:30.529Z,101005.78
2022-09-12T19:25:58.944Z,100974.00
2022-09-12T19:28:25.671Z,101023.06
2022-09-12T19:30:53.852Z,101032.13
2022-09-12T19:33:21.494Z,101008.97
2022-09-12T19:35:50.160Z,101034.41
2022-09-12T19:38:17.555Z,100996.84
2022-09-12T19:40:44.195Z,101002.38
2022-09-12T19:43:11.260Z,101037.44
2022-09-12T19:45:38.382Z,101034.84
2022-09-12T19:48:05.051Z,100985.91
2022-09-12T19:50:33.541Z,101036.81
2022-09-12T19:53:00.397Z,101044.06
2022-09-12T19:55:27.134Z,101043.28
2022-09-12T19:57:54.291Z,101035.28
2022-09-12T20:00:22.946Z,101019.75
2022-09-12T20:02:53.611Z,101051.91
2022-09-12T20:05:23.419Z,101048.06
2022-09-12T20:07:50.222Z,101035.13
2022-09-12T20:10:16.806Z,101040.41
2022-09-12T20:12:43.460Z,101036.44
2022-09-12T20:15:12.047Z,101043.44
2022-09-12T20:17:40.106Z,101045.34
2022-09-12T20:20:08.973Z,100902.41
2022-09-12T20:22:39.891Z,101033.44
2022-09-12T20:25:07.182Z,101038.53
2022-09-12T20:27:34.022Z,101057.84
2022-09-12T20:30:00.585Z,101056.41
2022-09-12T20:32:28.962Z,101047.19
2022-09-12T20:34:59.742Z,101037.97
2022-09-12T20:37:26.186Z,101024.69
2022-09-12T20:39:57.524Z,101015.09
2022-09-12T20:42:24.073Z,101063.03
2022-09-12T20:44:54.999Z,101051.13
2022-09-12T20:47:22.348Z,101060.31
2022-09-12T20:49:51.456Z,101034.13
2022-09-12T20:52:21.652Z,101067.22
2022-09-12T20:54:48.227Z,101056.22
2022-09-12T20:57:17.604Z,101049.06
2022-09-12T20:59:44.180Z,101053.66
2022-09-12T21:02:16.218Z,101042.88
2022-09-12T21:04:43.019Z,101073.81
2022-09-12T21:07:11.022Z,101067.78
2022-09-12T21:09:37.726Z,101020.59
2022-09-12T21:12:04.602Z,101066.25
2022-09-12T21:14:31.191Z,101062.41
2022-09-12T21:16:57.866Z,101073.94
2022-09-12T21:19:24.547Z,101060.31
2022-09-12T21:21:51.108Z,101051.25
2022-09-12T21:24:17.759Z,101068.88
2022-09-12T21:26:49.917Z,101043.94
2022-09-12T21:29:19.739Z,101046.50
2022-09-12T21:31:46.215Z,101049.50
2022-09-12T21:34:12.894Z,101051.84
2022-09-12T21:36:39.496Z,101060.78
2022-09-12T21:39:06.426Z,101048.69
2022-09-12T21:41:32.993Z,101056.22
2022-09-12T21:43:59.517Z,101060.19
2022-09-12T21:46:26.185Z,101052.88
2022-09-12T21:48:52.760Z,101059.81
2022-09-12T21:51:19.263Z,100966.00
2022-09-12T21:53:45.839Z,101044.66
2022-09-12T21:56:12.582Z,100953.13
2022-09-12T21:58:39.321Z,101067.19
2022-09-12T22:01:06.229Z,101071.00
2022-09-12T22:03:33.103Z,101054.16
2022-09-12T22:06:01.669Z,101029.41
2022-09-12T22:08:29.799Z,100951.81
2022-09-12T22:11:02.122Z,101067.56
2022-09-12T22:13:31.451Z,101059.22
2022-09-12T22:15:58.564Z,101055.69
2022-09-12T22:18:25.986Z,101065.03
2022-09-12T22:21:00.033Z,101066.53
2022-09-12T22:23:47.485Z,101046.91
2022-09-12T22:26:14.276Z,101066.13
2022-09-12T22:28:41.325Z,101042.78
2022-09-12T22:31:12.221Z,101066.53
2022-09-12T22:33:42.215Z,100999.88
2022-09-12T22:36:09.941Z,100996.97
2022-09-12T22:38:36.563Z,101061.09
2022-09-12T22:41:09.446Z,101043.19
2022-09-12T22:43:37.239Z,101019.47
2022-09-12T22:46:12.585Z,101059.25
2022-09-12T22:48:39.658Z,101039.03
2022-09-12T22:51:08.256Z,100957.03
2022-09-12T22:53:38.555Z,101040.47
2022-09-12T22:56:05.813Z,101023.19
2022-09-12T22:58:34.694Z,101054.47
2022-09-12T23:01:01.340Z,101024.06
2022-09-12T23:03:28.116Z,101041.94
2022-09-12T23:05:54.722Z,101050.50
2022-09-12T23:08:21.293Z,101040.28
2022-09-12T23:10:48.163Z,100993.44
2022-09-12T23:13:15.020Z,101048.66
2022-09-12T23:15:41.624Z,100970.75
2022-09-12T23:18:08.524Z,101026.97
2022-09-12T23:20:35.185Z,101046.56
2022-09-12T23:23:02.319Z,101014.09
2022-09-12T23:25:28.943Z,101005.75
2022-09-12T23:27:55.492Z,101052.81
2022-09-12T23:30:21.993Z,101037.81
2022-09-12T23:32:49.268Z,101008.88
2022-09-12T23:35:19.690Z,100922.03
2022-09-12T23:37:47.255Z,101019.28
2022-09-12T23:40:13.936Z,100966.16
2022-09-12T23:42:40.531Z,101046.16
2022-09-12T23:45:07.669Z,101020.13
2022-09-12T23:47:34.220Z,101026.16
2022-09-12T23:50:00.855Z,101042.19
2022-09-12T23:52:27.400Z,101036.97
2022-09-12T23:54:54.025Z,100983.84
2022-09-12T23:57:20.687Z,100995.31
2022-09-12T23:59:47.193Z,101050.31
